Time;durP1;ratioP1;P1;durP2;ratioP2;P2;SDS_P1;SDS_P2;PMS_P1;PMS_P2;Temp;Humidity;BMP_temperature;BMP_pressure;BME280_temperature;BME280_humidity;BME280_pressure;Samples;Min_cycle;Max_cycle;Signal;HPM_P1;HPM_P2
2023/03/27 00:42:23;;;;;;;2.63;0.97;;;3.60;1.00;;;;;;6201207;22;20268;-76
2023/03/27 00:44:50;;;;;;;3.20;0.90;;;4.20;1.00;;;;;;6215176;23;20182;-76
2023/03/27 00:47:19;;;;;;;3.30;0.90;;;3.60;1.00;;;;;;6217163;23;20190;-78
2023/03/27 00:49:47;;;;;;;4.03;1.20;;;3.60;1.00;;;;;;6217167;23;20142;-77
2023/03/27 00:52:15;;;;;;;1.77;0.80;;;3.50;1.00;;;;;;6216792;23;20618;-77
2023/03/27 00:54:42;;;;;;;4.00;0.90;;;3.50;1.00;;;;;;6189455;23;20198;-78
2023/03/27 00:57:11;;;;;;;3.17;1.00;;;3.40;1.00;;;;;;6216927;23;20150;-78
2023/03/27 00:59:40;;;;;;;3.30;0.70;;;3.30;1.00;;;;;;6216496;23;20158;-78
2023/03/27 01:02:08;;;;;;;2.67;0.90;;;3.30;1.00;;;;;;6216627;23;20151;-78
2023/03/27 01:04:36;;;;;;;3.10;1.20;;;3.30;1.00;;;;;;6215906;23;20178;-77
2023/03/27 01:07:04;;;;;;;4.10;0.70;;;3.30;1.00;;;;;;6190790;23;20172;-78
2023/03/27 01:09:30;;;;;;;2.20;0.70;;;3.30;1.00;;;;;;6191289;23;20158;-77
2023/03/27 01:12:05;;;;;;;1.33;0.70;;;3.30;1.00;;;;;;6216689;23;20284;-77
2023/03/27 01:14:41;;;;;;;2.17;0.70;;;3.20;1.00;;;;;;6215658;23;20185;-78
2023/03/27 01:17:26;;;;;;;3.43;1.00;;;3.30;1.00;;;;;;6215577;23;20138;-76
2023/03/27 01:20:16;;;;;;;1.77;0.80;;;3.20;1.00;;;;;;6188104;23;20165;-77
2023/03/27 01:23:07;;;;;;;3.37;0.87;;;3.20;1.00;;;;;;6214665;23;20145;-77
2023/03/27 01:26:00;;;;;;;2.20;0.70;;;3.20;1.00;;;;;;6215034;23;20178;-77
2023/03/27 01:28:58;;;;;;;3.77;0.87;;;3.00;1.00;;;;;;6189376;23;20158;-78
2023/03/27 01:31:58;;;;;;;2.43;1.20;;;2.80;1.00;;;;;;6214608;23;20200;-77
2023/03/27 01:35:06;;;;;;;5.93;1.00;;;2.70;1.00;;;;;;6214664;23;20186;-78
2023/03/27 01:37:54;;;;;;;4.03;0.80;;;2.60;1.00;;;;;;6215209;23;20141;-77
2023/03/27 01:40:31;;;;;;;4.93;0.80;;;2.50;1.00;;;;;;6188490;23;20154;-77
2023/03/27 01:43:03;;;;;;;5.03;1.37;;;2.40;1.00;;;;;;6187423;23;20170;-77
2023/03/27 01:45:49;;;;;;;2.37;0.80;;;2.40;1.00;;;;;;6216273;23;20632;-76
2023/03/27 01:48:17;;;;;;;3.40;0.90;;;2.30;1.00;;;;;;6215894;23;20143;-76
2023/03/27 01:50:54;;;;;;;5.10;1.00;;;2.20;1.00;;;;;;6189595;23;20159;-78
2023/03/27 01:53:28;;;;;;;3.87;0.73;;;2.30;1.00;;;;;;6215421;23;20138;-77
2023/03/27 01:56:04;;;;;;;10.63;1.50;;;2.40;1.00;;;;;;6215410;23;20165;-77
2023/03/27 01:58:35;;;;;;;2.00;0.80;;;2.10;1.00;;;;;;6189458;23;20149;-78
2023/03/27 02:01:02;;;;;;;1.43;1.30;;;2.00;1.00;;;;;;6215392;23;20639;-77
2023/03/27 02:03:41;;;;;;;3.93;1.13;;;2.10;1.00;;;;;;6214809;23;20158;-78
2023/03/27 02:06:25;;;;;;;6.90;1.30;;;2.00;1.00;;;;;;6214452;23;20197;-76
2023/03/27 02:09:23;;;;;;;3.77;1.13;;;1.90;1.00;;;;;;6188969;23;20494;-79
2023/03/27 02:11:55;;;;;;;3.80;1.90;;;2.10;1.00;;;;;;6214979;23;20143;-78
2023/03/27 02:14:26;;;;;;;4.77;1.20;;;2.00;1.00;;;;;;6188368;23;20182;-75
2023/03/27 02:17:02;;;;;;;3.97;0.97;;;1.90;1.00;;;;;;6215149;23;20269;-76
2023/03/27 02:19:37;;;;;;;4.27;1.40;;;1.90;1.00;;;;;;6215706;23;20152;-78
2023/03/27 02:22:03;;;;;;;2.60;0.97;;;1.90;1.00;;;;;;6214864;23;20495;-77
2023/03/27 02:24:28;;;;;;;4.10;1.20;;;1.80;1.00;;;;;;6215176;23;20190;-77
2023/03/27 02:27:03;;;;;;;3.70;0.93;;;1.90;1.00;;;;;;6214098;23;20150;-78
2023/03/27 02:29:45;;;;;;;7.57;1.30;;;1.90;1.00;;;;;;6189477;23;20170;-79
2023/03/27 02:32:32;;;;;;;5.30;1.23;;;1.90;1.00;;;;;;6215116;23;20204;-77
2023/03/27 02:34:58;;;;;;;5.13;0.83;;;1.90;1.00;;;;;;6187981;23;20190;-76
2023/03/27 02:37:35;;;;;;;5.43;1.03;;;2.10;1.00;;;;;;6214573;23;20158;-77
2023/03/27 02:40:12;;;;;;;4.43;1.10;;;1.90;1.00;;;;;;6214200;23;20142;-78
2023/03/27 02:42:59;;;;;;;3.40;1.30;;;2.00;1.00;;;;;;6186659;23;20701;-76
2023/03/27 02:45:47;;;;;;;5.17;0.90;;;1.50;1.00;;;;;;6186921;23;20190;-77
2023/03/27 02:48:33;;;;;;;5.23;1.00;;;1.40;1.00;;;;;;6213620;23;20151;-78
2023/03/27 02:51:24;;;;;;;5.63;1.20;;;1.40;1.00;;;;;;6185990;23;20201;-77
2023/03/27 02:54:08;;;;;;;4.17;1.40;;;1.30;1.00;;;;;;6211682;23;20170;-78
2023/03/27 02:56:39;;;;;;;3.20;1.40;;;1.30;1.00;;;;;;6184632;23;20181;-76
2023/03/27 02:59:09;;;;;;;6.83;1.67;;;1.50;1.00;;;;;;6184773;23;20244;-77
2023/03/27 03:01:36;;;;;;;5.20;2.53;;;1.50;1.00;;;;;;6182896;23;20712;-77
2023/03/27 03:04:11;;;;;;;3.70;1.37;;;1.40;1.00;;;;;;6181217;23;20221;-77
2023/03/27 03:06:40;;;;;;;3.53;1.10;;;1.40;1.00;;;;;;6205715;23;20145;-76
2023/03/27 03:09:07;;;;;;;5.30;1.43;;;1.50;1.00;;;;;;6178068;23;20165;-76
2023/03/27 03:11:36;;;;;;;6.97;1.57;;;1.70;1.00;;;;;;6181164;23;20158;-77
2023/03/27 03:14:01;;;;;;;4.30;1.40;;;1.90;1.00;;;;;;6214796;23;20213;-76
2023/03/27 03:16:28;;;;;;;5.60;1.20;;;2.20;1.00;;;;;;6216108;23;20158;-77
2023/03/27 03:18:54;;;;;;;3.03;1.10;;;2.20;1.00;;;;;;6215480;23;20165;-78
2023/03/27 03:21:20;;;;;;;3.50;1.20;;;1.90;1.00;;;;;;6214411;23;20154;-78
2023/03/27 03:23:45;;;;;;;3.33;1.10;;;1.80;1.00;;;;;;6213534;23;20154;-75
2023/03/27 03:26:12;;;;;;;2.83;1.00;;;1.60;1.00;;;;;;6214744;23;20230;-77
2023/03/27 03:28:37;;;;;;;5.33;1.17;;;1.50;1.00;;;;;;6188682;23;20169;-78
2023/03/27 03:31:03;;;;;;;3.73;1.20;;;1.60;1.00;;;;;;6215108;23;20210;-79
2023/03/27 03:33:30;;;;;;;6.13;2.17;;;1.60;1.00;;;;;;6214268;23;20210;-76
2023/03/27 03:35:59;;;;;;;5.70;1.27;;;1.70;1.00;;;;;;6214959;23;20174;-77
2023/03/27 03:38:26;;;;;;;3.63;0.90;;;1.90;1.00;;;;;;6214763;23;20488;-78
2023/03/27 03:40:56;;;;;;;5.83;1.50;;;1.80;1.00;;;;;;6188444;23;20212;-79
2023/03/27 03:43:24;;;;;;;7.40;1.37;;;2.30;1.00;;;;;;6214944;23;20142;-78
2023/03/27 03:45:50;;;;;;;6.40;1.13;;;2.40;1.00;;;;;;6214607;23;20190;-78
2023/03/27 03:48:16;;;;;;;4.97;1.10;;;2.40;1.00;;;;;;6216425;23;20158;-77
2023/03/27 03:50:46;;;;;;;5.43;1.33;;;2.40;1.00;;;;;;6191035;23;20640;-78
2023/03/27 03:53:13;;;;;;;5.60;0.90;;;2.50;1.00;;;;;;6191146;23;20158;-78
2023/03/27 03:55:38;;;;;;;3.07;1.17;;;2.50;1.00;;;;;;6216969;23;20258;-78
2023/03/27 03:58:05;;;;;;;6.10;1.00;;;2.60;1.00;;;;;;6217226;23;20161;-76
2023/03/27 04:00:33;;;;;;;3.43;0.83;;;2.90;1.00;;;;;;6216515;23;20525;-77
2023/03/27 04:02:59;;;;;;;6.80;0.87;;;2.70;1.00;;;;;;6189961;23;20566;-77
2023/03/27 04:05:24;;;;;;;2.57;0.97;;;2.80;1.00;;;;;;6189710;23;20194;-77
2023/03/27 04:07:50;;;;;;;5.50;1.43;;;2.80;1.00;;;;;;6216269;23;20154;-78
2023/03/27 04:10:16;;;;;;;4.87;0.90;;;2.90;1.00;;;;;;6190807;23;20281;-78
2023/03/27 04:12:47;;;;;;;4.03;1.07;;;2.80;1.00;;;;;;6216480;23;20178;-76
2023/03/27 04:15:12;;;;;;;2.70;0.93;;;2.60;1.00;;;;;;6190976;23;20178;-76
2023/03/27 04:17:38;;;;;;;3.20;1.20;;;2.60;1.00;;;;;;6217068;23;20166;-77
2023/03/27 04:20:05;;;;;;;5.10;1.03;;;2.60;1.00;;;;;;6190175;23;20162;-76
2023/03/27 04:22:36;;;;;;;2.53;1.00;;;2.60;1.00;;;;;;6216674;23;20214;-78
2023/03/27 04:25:04;;;;;;;3.77;1.00;;;2.50;1.00;;;;;;6216563;23;20187;-77
2023/03/27 04:27:29;;;;;;;5.07;1.10;;;2.50;1.00;;;;;;6216334;23;20154;-79
2023/03/27 04:29:55;;;;;;;2.73;1.10;;;2.50;1.00;;;;;;6217091;23;20200;-78
2023/03/27 04:32:20;;;;;;;4.17;1.10;;;2.60;1.00;;;;;;6216644;23;20151;-77
2023/03/27 04:34:47;;;;;;;3.53;0.90;;;2.60;1.00;;;;;;6216304;23;20604;-77
2023/03/27 04:37:13;;;;;;;4.93;1.63;;;2.80;1.00;;;;;;6190633;23;20168;-78
2023/03/27 04:39:41;;;;;;;4.33;1.03;;;2.90;1.00;;;;;;6216087;23;20154;-77
2023/03/27 04:42:10;;;;;;;3.20;1.43;;;3.00;1.00;;;;;;6212237;23;20606;-78
2023/03/27 04:44:36;;;;;;;7.53;1.30;;;2.90;1.00;;;;;;6185850;23;20591;-78
2023/03/27 04:47:03;;;;;;;5.87;1.10;;;2.80;1.00;;;;;;6185116;23;20193;-76
2023/03/27 04:49:29;;;;;;;6.83;1.50;;;2.80;1.00;;;;;;6212510;23;20150;-77
2023/03/27 04:51:55;;;;;;;4.07;1.10;;;2.80;1.00;;;;;;6212282;23;20147;-79
2023/03/27 04:54:22;;;;;;;3.47;0.90;;;2.80;1.00;;;;;;6185583;23;20236;-76
2023/03/27 04:56:48;;;;;;;6.40;1.60;;;2.80;1.00;;;;;;6213115;23;20181;-79
2023/03/27 04:59:14;;;;;;;4.37;1.20;;;2.70;1.00;;;;;;6209440;23;20212;-78
2023/03/27 05:01:40;;;;;;;4.97;1.50;;;2.80;1.00;;;;;;6181133;23;20158;-78
2023/03/27 05:04:06;;;;;;;5.17;1.40;;;2.80;1.00;;;;;;6207212;23;20213;-78
2023/03/27 05:06:32;;;;;;;6.27;1.63;;;2.70;1.00;;;;;;6181196;23;20158;-78
2023/03/27 05:08:58;;;;;;;5.97;1.43;;;2.90;1.00;;;;;;6207904;23;20157;-77
2023/03/27 05:11:24;;;;;;;6.40;1.27;;;2.80;1.00;;;;;;6207258;23;20158;-79
2023/03/27 05:13:50;;;;;;;8.00;1.20;;;2.80;1.00;;;;;;6207606;23;20204;-79
2023/03/27 05:16:16;;;;;;;4.53;1.27;;;2.70;1.00;;;;;;6180656;23;20185;-78
2023/03/27 05:18:43;;;;;;;6.23;1.33;;;2.70;1.00;;;;;;6207607;23;20151;-78
2023/03/27 05:21:10;;;;;;;4.80;1.57;;;2.90;1.00;;;;;;6207455;23;20590;-78
2023/03/27 05:23:36;;;;;;;5.50;1.30;;;2.90;1.00;;;;;;6207084;23;20185;-78
2023/03/27 05:26:02;;;;;;;5.17;1.43;;;2.90;1.00;;;;;;6207378;23;20171;-77
2023/03/27 05:28:28;;;;;;;6.07;1.70;;;2.90;1.00;;;;;;6207420;23;20621;-78
2023/03/27 05:30:53;;;;;;;6.20;1.80;;;2.90;1.00;;;;;;6180608;23;20158;-79
2023/03/27 05:33:19;;;;;;;6.57;1.60;;;2.70;1.00;;;;;;6207200;23;20233;-77
2023/03/27 05:35:48;;;;;;;7.00;1.57;;;2.80;1.00;;;;;;6207396;23;20181;-79
2023/03/27 05:38:14;;;;;;;7.07;1.57;;;2.60;1.00;;;;;;6180884;23;20158;-78
2023/03/27 05:40:40;;;;;;;4.87;1.83;;;2.40;1.00;;;;;;6180388;23;20184;-78
2023/03/27 05:43:07;;;;;;;8.03;1.67;;;2.30;1.00;;;;;;6180670;23;20162;-79
2023/03/27 05:45:32;;;;;;;7.67;1.93;;;2.40;1.00;;;;;;6180765;23;20193;-78
2023/03/27 05:48:00;;;;;;;7.03;1.80;;;2.30;1.00;;;;;;6207532;23;20656;-79
2023/03/27 05:50:32;;;;;;;7.23;1.70;;;2.30;1.00;;;;;;6207644;23;20158;-78
2023/03/27 05:53:03;;;;;;;6.10;1.80;;;2.30;1.00;;;;;;6207054;23;20143;-79
2023/03/27 05:55:30;;;;;;;7.80;2.60;;;2.50;1.00;;;;;;6207025;23;20183;-78
2023/03/27 05:57:56;;;;;;;7.53;1.40;;;2.30;1.00;;;;;;6185081;23;20158;-77
2023/03/27 06:00:24;;;;;;;8.00;1.73;;;2.30;1.00;;;;;;6211288;23;20147;-76
2023/03/27 06:02:53;;;;;;;5.53;1.60;;;2.30;1.00;;;;;;6184176;23;20154;-76
2023/03/27 06:05:20;;;;;;;7.13;1.50;;;2.40;1.00;;;;;;6184189;23;20208;-77
2023/03/27 06:07:46;;;;;;;4.87;2.23;;;2.40;1.00;;;;;;6207656;23;20146;-77
2023/03/27 06:10:13;;;;;;;17.80;6.70;;;2.50;1.00;;;;;;6180195;23;20603;-78
2023/03/27 06:12:40;;;;;;;15.50;4.60;;;2.50;1.00;;;;;;6180211;23;20158;-79
2023/03/27 06:15:07;;;;;;;9.60;2.97;;;2.40;1.00;;;;;;6180323;23;20186;-79
2023/03/27 06:17:33;;;;;;;11.53;2.70;;;2.50;1.00;;;;;;6206876;23;20154;-78
2023/03/27 06:19:59;;;;;;;6.43;2.30;;;2.80;1.00;;;;;;6207165;23;20970;-78
2023/03/27 06:22:26;;;;;;;7.53;2.30;;;3.10;1.00;;;;;;6206989;23;20161;-79
2023/03/27 06:24:52;;;;;;;9.23;2.33;;;3.30;1.00;;;;;;6206824;23;20244;-79
2023/03/27 06:27:22;;;;;;;7.57;2.83;;;3.30;1.00;;;;;;6207645;23;20228;-78
2023/03/27 06:29:47;;;;;;;8.23;2.67;;;3.40;1.00;;;;;;6207188;23;20150;-78
2023/03/27 06:32:13;;;;;;;7.80;1.80;;;3.40;1.00;;;;;;6180444;23;20579;-78
2023/03/27 06:34:38;;;;;;;7.13;1.93;;;3.30;1.00;;;;;;6206804;23;20178;-78
2023/03/27 06:37:04;;;;;;;7.20;2.00;;;3.40;1.00;;;;;;6206976;23;20193;-79
2023/03/27 06:39:30;;;;;;;5.60;1.80;;;3.50;1.00;;;;;;6207162;23;20223;-78
2023/03/27 06:41:56;;;;;;;10.63;2.07;;;3.70;1.00;;;;;;6180228;23;20185;-78
2023/03/27 06:44:21;;;;;;;7.90;1.80;;;3.70;1.00;;;;;;6207057;23;20285;-79
2023/03/27 06:46:47;;;;;;;6.00;2.07;;;3.70;1.00;;;;;;6180716;23;20162;-79
2023/03/27 06:49:13;;;;;;;8.07;1.87;;;3.60;1.00;;;;;;6180085;23;20241;-78
2023/03/27 06:51:38;;;;;;;8.67;2.10;;;3.60;1.00;;;;;;6206228;23;20154;-78
2023/03/27 06:54:04;;;;;;;5.57;1.80;;;3.50;1.00;;;;;;6179632;23;20216;-78
2023/03/27 06:56:30;;;;;;;10.10;2.33;;;3.40;1.00;;;;;;6206738;23;20537;-78
2023/03/27 06:58:55;;;;;;;9.10;2.00;;;3.30;1.00;;;;;;6180141;23;20166;-77
2023/03/27 07:01:22;;;;;;;5.97;2.33;;;3.30;1.00;;;;;;6206580;23;20146;-76
2023/03/27 07:03:47;;;;;;;7.17;2.17;;;3.30;1.00;;;;;;6206619;23;20622;-78
2023/03/27 07:06:13;;;;;;;7.83;2.30;;;3.40;1.00;;;;;;6207117;23;20174;-78
2023/03/27 07:08:38;;;;;;;9.13;2.40;;;3.50;1.00;;;;;;6180553;23;20261;-77
2023/03/27 07:11:04;;;;;;;8.43;2.17;;;3.50;1.00;;;;;;6207059;23;20160;-76
2023/03/27 07:13:30;;;;;;;6.73;2.23;;;3.40;1.00;;;;;;6207356;23;20598;-78
2023/03/27 07:15:56;;;;;;;6.43;2.30;;;3.50;1.00;;;;;;6180304;23;20185;-77
2023/03/27 07:18:21;;;;;;;6.93;2.13;;;3.60;1.00;;;;;;6180444;23;20746;-78
2023/03/27 07:20:49;;;;;;;5.27;2.10;;;3.60;1.00;;;;;;6207140;23;20234;-76
2023/03/27 07:23:14;;;;;;;8.30;1.93;;;3.70;1.00;;;;;;6182337;23;20517;-76
2023/03/27 07:25:40;;;;;;;10.57;1.90;;;3.60;1.00;;;;;;6209231;23;20190;-76
2023/03/27 07:28:09;;;;;;;5.73;2.30;;;3.60;1.00;;;;;;6209831;23;20196;-79
2023/03/27 07:30:36;;;;;;;9.27;2.17;;;3.60;1.00;;;;;;6209444;23;20204;-77
2023/03/27 07:33:02;;;;;;;6.87;2.47;;;3.70;1.00;;;;;;6209038;23;20161;-78
2023/03/27 07:35:28;;;;;;;6.40;2.20;;;3.70;1.00;;;;;;6209452;23;20379;-76
2023/03/27 07:37:54;;;;;;;7.60;2.10;;;3.80;1.00;;;;;;6208379;23;20607;-78
2023/03/27 07:40:21;;;;;;;9.70;2.30;;;3.80;1.00;;;;;;6209557;23;20241;-76
2023/03/27 07:42:50;;;;;;;6.00;2.03;;;3.80;1.00;;;;;;6208429;23;20696;-79
2023/03/27 07:45:17;;;;;;;6.40;2.43;;;3.90;1.00;;;;;;6206309;23;20916;-78
2023/03/27 07:47:44;;;;;;;9.20;2.30;;;3.90;1.00;;;;;;6181049;23;20158;-77
2023/03/27 07:50:13;;;;;;;7.00;2.50;;;4.00;1.00;;;;;;6207142;23;20151;-78
2023/03/27 07:52:44;;;;;;;5.53;2.50;;;4.20;1.00;;;;;;6206930;23;20204;-78
2023/03/27 07:55:16;;;;;;;8.90;2.33;;;4.30;1.00;;;;;;6208236;23;20182;-78
2023/03/27 07:57:48;;;;;;;6.30;2.20;;;4.50;1.00;;;;;;6203850;23;20177;-79
2023/03/27 08:00:17;;;;;;;5.17;1.93;;;5.00;1.00;;;;;;6180479;23;20189;-78
2023/03/27 08:02:49;;;;;;;5.43;1.90;;;5.40;1.00;;;;;;6180541;23;20233;-77
2023/03/27 08:05:15;;;;;;;5.77;2.00;;;5.40;1.00;;;;;;6206533;23;20190;-79
2023/03/27 08:07:46;;;;;;;8.83;2.43;;;5.20;1.00;;;;;;6179539;23;20150;-76
2023/03/27 08:10:14;;;;;;;6.27;2.20;;;5.10;1.00;;;;;;6204480;23;20143;-77
2023/03/27 08:12:41;;;;;;;4.63;1.90;;;4.90;1.00;;;;;;6177646;23;20150;-78
2023/03/27 08:15:08;;;;;;;6.87;1.70;;;4.90;1.00;;;;;;6177278;23;20220;-78
2023/03/27 08:17:34;;;;;;;8.50;2.03;;;5.00;1.00;;;;;;6204360;23;20226;-78
2023/03/27 08:20:08;;;;;;;4.50;1.60;;;5.20;1.00;;;;;;6204872;23;20466;-77
2023/03/27 08:22:37;;;;;;;7.00;1.77;;;5.10;1.00;;;;;;6178217;23;20155;-78
2023/03/27 08:25:05;;;;;;;6.10;1.80;;;5.20;1.00;;;;;;6203488;23;20240;-77
2023/03/27 08:27:31;;;;;;;5.03;1.73;;;5.30;1.00;;;;;;6204563;23;20640;-78
2023/03/27 08:29:58;;;;;;;3.63;1.70;;;5.30;1.00;;;;;;6208902;23;20168;-79
2023/03/27 08:32:23;;;;;;;5.03;1.57;;;5.20;1.00;;;;;;6208767;23;20472;-78
2023/03/27 08:34:49;;;;;;;6.03;2.27;;;5.70;1.00;;;;;;6207812;23;20206;-78
2023/03/27 08:37:14;;;;;;;6.00;2.10;;;5.20;1.00;;;;;;6206499;23;20644;-78
2023/03/27 08:39:40;;;;;;;6.53;1.90;;;5.00;1.00;;;;;;6204846;23;20150;-77
2023/03/27 08:42:12;;;;;;;5.00;1.80;;;5.00;1.00;;;;;;6204988;23;20170;-79
2023/03/27 08:44:38;;;;;;;4.50;1.93;;;5.00;1.00;;;;;;6204919;23;20744;-78
2023/03/27 08:47:32;;;;;;;6.53;1.77;;;5.00;1.00;;;;;;6207297;23;20135;-78
2023/03/27 08:50:04;;;;;;;4.23;1.30;;;4.90;1.00;;;;;;6207122;23;20645;-78
2023/03/27 08:52:31;;;;;;;6.87;1.53;;;4.90;1.00;;;;;;6208576;23;20138;-78
2023/03/27 08:55:06;;;;;;;3.33;1.20;;;5.10;1.00;;;;;;6207547;23;20664;-77
2023/03/27 08:57:33;;;;;;;3.53;1.40;;;5.20;1.00;;;;;;6208991;23;20149;-78
2023/03/27 08:59:59;;;;;;;3.97;1.30;;;5.20;1.00;;;;;;6207120;23;20158;-79
2023/03/27 09:02:45;;;;;;;5.53;1.73;;;5.30;1.00;;;;;;6205789;23;20947;-78
2023/03/27 09:05:30;;;;;;;6.70;2.00;;;5.60;1.00;;;;;;6206417;23;20230;-78
2023/03/27 09:08:09;;;;;;;3.63;1.47;;;5.70;1.00;;;;;;6205127;23;20567;-78
2023/03/27 09:10:50;;;;;;;4.10;1.20;;;6.00;1.00;;;;;;6178161;23;20161;-78
2023/03/27 09:13:26;;;;;;;5.77;1.70;;;6.10;1.00;;;;;;6205348;23;20485;-77
2023/03/27 09:16:24;;;;;;;5.07;1.50;;;6.20;1.00;;;;;;6178149;23;20890;-79
2023/03/27 09:19:03;;;;;;;6.67;1.50;;;6.50;1.00;;;;;;6207277;23;20246;-78
2023/03/27 09:21:49;;;;;;;3.53;1.43;;;6.50;1.00;;;;;;6181171;23;20165;-78
2023/03/27 09:24:30;;;;;;;5.97;1.47;;;6.50;1.00;;;;;;6181037;23;20561;-78
2023/03/27 09:26:57;;;;;;;7.13;2.20;;;6.50;1.00;;;;;;6181191;23;20158;-78
2023/03/27 09:29:28;;;;;;;5.87;2.37;;;6.60;1.00;;;;;;6208035;23;20154;-78
2023/03/27 09:31:56;;;;;;;6.20;2.40;;;6.50;1.00;;;;;;6207575;23;20134;-78
2023/03/27 09:34:32;;;;;;;8.63;2.40;;;5.60;1.00;;;;;;6180924;23;20236;-79
2023/03/27 09:36:59;;;;;;;5.73;1.50;;;5.80;1.00;;;;;;6207649;23;20150;-78
2023/03/27 09:39:31;;;;;;;4.03;1.40;;;5.80;1.00;;;;;;6207933;23;20238;-78
2023/03/27 09:42:09;;;;;;;3.07;1.13;;;5.90;1.00;;;;;;6207559;23;20240;-79
2023/03/27 09:44:39;;;;;;;6.33;1.43;;;6.20;1.00;;;;;;6207749;23;20186;-78
2023/03/27 09:47:14;;;;;;;5.50;1.60;;;6.10;1.00;;;;;;6181395;23;20189;-78
2023/03/27 09:49:46;;;;;;;6.07;1.53;;;6.10;1.00;;;;;;6207333;23;20208;-78
2023/03/27 09:52:32;;;;;;;3.93;1.50;;;6.30;1.00;;;;;;6207130;23;20161;-78
2023/03/27 09:54:58;;;;;;;6.30;1.37;;;6.50;1.00;;;;;;6207470;23;20170;-79
2023/03/27 09:57:31;;;;;;;4.73;1.30;;;6.20;1.00;;;;;;6181488;23;20174;-78
2023/03/27 09:59:59;;;;;;;4.10;1.13;;;6.20;1.00;;;;;;6207566;23;20139;-78
2023/03/27 10:02:27;;;;;;;6.93;1.93;;;6.30;1.00;;;;;;6181433;23;20169;-78
2023/03/27 10:05:15;;;;;;;3.53;1.13;;;6.60;1.00;;;;;;6207646;23;20642;-78
2023/03/27 10:07:41;;;;;;;5.10;1.50;;;6.50;1.00;;;;;;6208338;23;20139;-78
2023/03/27 10:10:11;;;;;;;3.17;1.30;;;6.40;1.00;;;;;;6207994;23;20150;-78
2023/03/27 10:12:39;;;;;;;4.07;1.30;;;6.60;1.00;;;;;;6206810;23;20259;-78
2023/03/27 10:15:23;;;;;;;5.23;1.57;;;6.60;1.00;;;;;;6180464;23;20182;-78
2023/03/27 10:17:49;;;;;;;4.53;1.10;;;6.70;1.00;;;;;;6207357;23;20174;-78
2023/03/27 10:20:17;;;;;;;4.53;1.70;;;6.80;1.00;;;;;;6181173;23;20626;-79
2023/03/27 10:22:54;;;;;;;4.03;1.30;;;6.90;1.00;;;;;;6207921;23;20161;-78
2023/03/27 10:25:28;;;;;;;3.43;1.17;;;7.00;1.00;;;;;;6181452;23;20196;-78
2023/03/27 10:28:05;;;;;;;4.10;1.17;;;7.30;1.00;;;;;;6203448;23;20606;-78
2023/03/27 10:30:34;;;;;;;5.10;1.33;;;7.40;1.00;;;;;;6207912;23;20141;-78
2023/03/27 10:33:01;;;;;;;3.67;1.10;;;7.30;1.00;;;;;;6207773;23;20139;-78
2023/03/27 10:35:26;;;;;;;3.40;1.20;;;7.50;1.00;;;;;;6207604;23;20170;-77
2023/03/27 10:37:52;;;;;;;3.20;1.00;;;7.50;1.00;;;;;;6208407;23;20154;-78
2023/03/27 10:40:24;;;;;;;1.60;0.77;;;7.30;1.00;;;;;;6181914;23;20212;-78
2023/03/27 10:42:53;;;;;;;3.27;1.20;;;6.90;1.00;;;;;;6207692;23;20236;-79
2023/03/27 10:45:20;;;;;;;4.63;1.30;;;6.20;1.00;;;;;;6207616;23;20538;-78
2023/03/27 10:47:50;;;;;;;5.30;1.47;;;5.70;1.00;;;;;;6206952;23;20149;-78
2023/03/27 10:50:34;;;;;;;3.93;1.30;;;5.20;1.00;;;;;;6206820;23;20193;-78
2023/03/27 10:53:26;;;;;;;2.67;1.20;;;4.40;1.00;;;;;;6179785;23;20150;-77
2023/03/27 10:55:53;;;;;;;2.83;1.20;;;4.40;1.00;;;;;;6206347;23;20261;-77
2023/03/27 10:58:37;;;;;;;2.73;1.50;;;4.50;1.00;;;;;;6182149;23;20142;-78
2023/03/27 11:01:11;;;;;;;2.67;1.30;;;4.70;1.00;;;;;;6208473;23;20178;-78
2023/03/27 11:03:49;;;;;;;2.33;1.10;;;4.80;1.00;;;;;;6180708;23;20181;-77
2023/03/27 11:06:17;;;;;;;2.83;1.47;;;4.80;1.00;;;;;;6206235;23;20174;-78
2023/03/27 11:08:52;;;;;;;6.23;3.30;;;4.80;1.00;;;;;;6207330;23;20155;-78
2023/03/27 11:11:27;;;;;;;2.37;1.10;;;4.80;1.00;;;;;;6200883;23;20142;-77
2023/03/27 11:13:54;;;;;;;1.90;0.87;;;4.40;1.00;;;;;;6173887;23;20150;-77
2023/03/27 11:16:25;;;;;;;4.10;0.80;;;4.20;1.00;;;;;;6207231;23;20614;-77
2023/03/27 11:19:09;;;;;;;3.87;0.97;;;4.00;1.00;;;;;;6208035;23;20218;-77
2023/03/27 11:21:46;;;;;;;1.57;0.90;;;4.00;1.00;;;;;;6205467;23;20749;-77
2023/03/27 11:24:38;;;;;;;1.40;0.80;;;4.10;1.00;;;;;;6204562;23;20170;-78
2023/03/27 11:27:19;;;;;;;2.23;0.90;;;4.30;1.00;;;;;;6207089;23;20161;-78
2023/03/27 11:29:57;;;;;;;2.73;0.90;;;4.90;1.00;;;;;;6208200;23;20143;-78
2023/03/27 11:32:31;;;;;;;1.83;0.77;;;5.10;1.00;;;;;;6208184;23;20162;-79
2023/03/27 11:35:04;;;;;;;3.80;0.90;;;5.60;1.00;;;;;;6207953;23;20170;-78
2023/03/27 11:37:44;;;;;;;1.63;0.90;;;5.80;1.00;;;;;;6208541;23;20166;-78
2023/03/27 11:40:17;;;;;;;3.83;1.30;;;5.80;1.00;;;;;;6208292;23;20139;-78
2023/03/27 11:42:45;;;;;;;4.70;1.50;;;6.00;1.00;;;;;;6180713;23;20289;-78
2023/03/27 11:45:17;;;;;;;4.97;1.50;;;6.30;1.00;;;;;;6203281;23;20626;-78
2023/03/27 11:48:16;;;;;;;2.87;1.40;;;6.60;1.00;;;;;;6202717;23;20147;-79
2023/03/27 11:51:03;;;;;;;3.70;1.97;;;6.40;1.00;;;;;;6195502;23;20186;-79
2023/03/27 11:53:38;;;;;;;4.67;1.20;;;6.50;1.00;;;;;;6204026;23;20598;-78
2023/03/27 11:56:34;;;;;;;3.37;1.50;;;6.00;1.00;;;;;;6203157;23;20182;-78
2023/03/27 11:59:06;;;;;;;1.97;0.80;;;5.00;1.00;;;;;;6203521;23;20679;-78
2023/03/27 12:01:46;;;;;;;2.43;0.60;;;4.00;1.00;;;;;;6204236;23;20170;-78
2023/03/27 12:04:56;;;;;;;1.57;0.70;;;2.90;1.00;;;;;;6202638;23;20219;-78
2023/03/27 12:07:24;;;;;;;1.93;0.50;;;2.00;99.90;;;;;;6126298;23;20154;-78
2023/03/27 12:09:56;;;;;;;1.00;0.53;;;1.60;99.90;;;;;;6181936;23;20158;-78
2023/03/27 12:12:46;;;;;;;0.93;0.60;;;1.60;1.00;;;;;;6182004;23;20177;-77
2023/03/27 12:15:30;;;;;;;2.53;0.90;;;2.00;1.00;;;;;;6207219;23;20170;-78
2023/03/27 12:18:31;;;;;;;1.20;1.03;;;2.20;1.00;;;;;;6206133;23;20154;-78
2023/03/27 12:21:14;;;;;;;2.93;2.30;;;2.40;1.00;;;;;;6202182;23;20157;-78
2023/03/27 12:24:06;;;;;;;2.87;1.20;;;2.60;1.00;;;;;;6203515;23;20874;-78
2023/03/27 12:27:04;;;;;;;1.43;1.00;;;2.70;1.00;;;;;;6202876;23;20594;-78
2023/03/27 12:29:41;;;;;;;1.40;1.20;;;2.60;1.00;;;;;;6176177;23;20239;-78
2023/03/27 12:32:22;;;;;;;1.73;1.40;;;2.60;1.00;;;;;;6203214;23;20138;-77
2023/03/27 12:34:58;;;;;;;1.53;1.17;;;2.80;1.00;;;;;;6203263;23;20256;-77
2023/03/27 12:37:28;;;;;;;3.53;1.10;;;3.20;1.00;;;;;;6203985;23;20150;-79
2023/03/27 12:39:57;;;;;;;2.67;1.07;;;3.60;1.00;;;;;;6204845;23;20143;-78
2023/03/27 12:42:49;;;;;;;1.73;1.30;;;3.90;99.90;;;;;;6204071;23;20170;-78
2023/03/27 12:45:25;;;;;;;2.57;1.80;;;4.00;99.90;;;;;;6178500;23;20194;-78
2023/03/27 12:48:09;;;;;;;3.07;1.30;;;4.30;99.90;;;;;;6208531;23;20145;-78
2023/03/27 12:50:49;;;;;;;3.97;2.23;;;4.60;64.10;;;;;;6208295;23;20157;-78
2023/03/27 12:53:28;;;;;;;3.03;1.13;;;4.70;20.30;;;;;;6207741;23;20142;-79
2023/03/27 12:56:18;;;;;;;2.30;1.70;;;5.00;4.20;;;;;;6207394;23;20504;-78
2023/03/27 12:58:47;;;;;;;3.93;1.40;;;4.90;1.00;;;;;;6208320;23;20157;-78
2023/03/27 13:01:42;;;;;;;2.43;1.30;;;5.00;1.00;;;;;;6181968;23;20165;-78
2023/03/27 13:04:59;;;;;;;3.13;1.33;;;5.20;1.00;;;;;;6207692;23;20182;-78
2023/03/27 13:07:42;;;;;;;2.30;1.57;;;5.30;1.00;;;;;;6148142;23;20190;-78
2023/03/27 13:10:40;;;;;;;2.77;1.27;;;5.60;1.00;;;;;;6212769;23;20162;-78
2023/03/27 13:13:43;;;;;;;3.63;1.50;;;5.90;1.00;;;;;;6202189;23;20193;-78
2023/03/27 13:16:36;;;;;;;6.80;1.70;;;6.10;1.00;;;;;;6210394;23;20178;-78
2023/03/27 13:19:05;;;;;;;4.70;1.80;;;6.40;1.00;;;;;;6210353;23;20147;-78
2023/03/27 13:21:44;;;;;;;4.13;1.73;;;6.40;1.00;;;;;;6183902;23;20610;-78
2023/03/27 13:24:23;;;;;;;1.23;0.90;;;6.60;1.00;;;;;;6210907;23;20170;-82
2023/03/27 13:27:31;;;;;;;1.03;0.50;;;6.60;1.00;;;;;;6178830;23;20403;-77
2023/03/27 13:29:57;;;;;;;2.53;1.03;;;4.60;1.00;;;;;;6206025;23;20166;-78
2023/03/27 13:32:37;;;;;;;1.53;0.70;;;3.20;1.00;;;;;;6201758;23;20594;-78
2023/03/27 13:35:19;;;;;;;1.57;0.70;;;2.10;99.90;;;;;;6201979;23;20199;-76
2023/03/27 13:37:51;;;;;;;1.60;0.60;;;1.50;1.00;;;;;;6206267;23;20167;-76
2023/03/27 13:40:25;;;;;;;0.97;0.30;;;1.20;99.90;;;;;;6208457;23;20142;-77
2023/03/27 13:42:57;;;;;;;2.63;0.80;;;1.10;1.00;;;;;;6181281;23;20193;-76
2023/03/27 13:45:37;;;;;;;5.10;0.70;;;1.10;99.90;;;;;;6184663;23;20201;-77
2023/03/27 13:48:14;;;;;;;3.93;1.10;;;1.10;99.90;;;;;;6214252;23;20135;-76
2023/03/27 13:51:11;;;;;;;3.30;1.10;;;1.00;99.90;;;;;;6186769;23;20510;-77
2023/03/27 13:54:01;;;;;;;2.90;1.10;;;1.10;1.00;;;;;;6211771;23;20619;-77
2023/03/27 13:56:49;;;;;;;2.50;0.90;;;1.30;1.00;;;;;;6184519;23;20182;-77
2023/03/27 13:59:40;;;;;;;2.70;2.00;;;1.60;1.00;;;;;;6211924;23;20670;-77
2023/03/27 14:02:17;;;;;;;3.10;1.30;;;1.90;99.90;;;;;;6211713;23;20135;-77
2023/03/27 14:05:14;;;;;;;2.20;1.17;;;2.10;1.00;;;;;;6210060;23;20185;-77
2023/03/27 14:08:16;;;;;;;2.93;2.40;;;2.20;99.90;;;;;;6180674;23;20169;-78
2023/03/27 14:10:59;;;;;;;3.00;2.07;;;2.50;99.90;;;;;;6207015;23;20157;-78
2023/03/27 14:13:33;;;;;;;2.10;1.57;;;2.90;99.90;;;;;;6180033;23;20166;-78
2023/03/27 14:16:36;;;;;;;2.17;1.57;;;3.30;1.00;;;;;;6180516;23;20220;-79
2023/03/27 14:19:25;;;;;;;3.67;1.87;;;3.40;99.90;;;;;;6204487;23;20598;-78
2023/03/27 14:22:13;;;;;;;3.63;2.40;;;3.50;99.90;;;;;;6199465;23;20158;-78